sensor_id;sensor_type;location;lat;lon;timestamp;pressure;altitude;pressure_sealevel;temperature;humidity
9281;BME280;4679;47.966;7.958;2023-04-28T06:16:39;96889.69;;;12.75;84.69
9281;BME280;4679;47.966;7.958;2023-04-28T06:18:41;96888.09;;;12.79;84.86
9281;BME280;4679;47.966;7.958;2023-04-28T06:20:43;96896.63;;;12.81;84.84
9281;BME280;4679;47.966;7.958;2023-04-28T06:22:44;96897.69;;;12.80;84.97
9281;BME280;4679;47.966;7.958;2023-04-28T06:24:46;96897.94;;;12.84;85.26
9281;BME280;4679;47.966;7.958;2023-04-28T06:26:48;96876.41;;;12.95;84.71
9281;BME280;4679;47.966;7.958;2023-04-28T06:28:49;96884.13;;;13.02;85.02
9281;BME280;4679;47.966;7.958;2023-04-28T06:30:51;96870.28;;;13.05;85.04
9281;BME280;4679;47.966;7.958;2023-04-28T06:32:54;96879.34;;;13.14;85.07
9281;BME280;4679;47.966;7.958;2023-04-28T06:34:57;96880.44;;;13.18;85.03
9281;BME280;4679;47.966;7.958;2023-04-28T06:36:58;96883.94;;;13.29;84.72
9281;BME280;4679;47.966;7.958;2023-04-28T06:39:00;96879.13;;;13.36;84.68
9281;BME280;4679;47.966;7.958;2023-04-28T06:41:02;96883.13;;;13.38;84.60
9281;BME280;4679;47.966;7.958;2023-04-28T06:43:04;96879.94;;;13.42;84.78
9281;BME280;4679;47.966;7.958;2023-04-28T06:45:06;96878.59;;;13.49;84.68
9281;BME280;4679;47.966;7.958;2023-04-28T06:47:08;96874.84;;;13.60;84.78
9281;BME280;4679;47.966;7.958;2023-04-28T06:49:11;96874.34;;;13.58;84.81
9281;BME280;4679;47.966;7.958;2023-04-28T06:51:13;96874.88;;;13.55;85.24
9281;BME280;4679;47.966;7.958;2023-04-28T06:53:15;96886.84;;;13.53;84.95
9281;BME280;4679;47.966;7.958;2023-04-28T06:55:16;96884.19;;;13.53;84.85
9281;BME280;4679;47.966;7.958;2023-04-28T06:57:18;96903.13;;;13.51;85.20
9281;BME280;4679;47.966;7.958;2023-04-28T06:59:20;96899.13;;;13.49;85.02
9281;BME280;4679;47.966;7.958;2023-04-28T07:01:22;96903.66;;;13.48;85.14
9281;BME280;4679;47.966;7.958;2023-04-28T07:03:25;96922.31;;;13.48;85.33
9281;BME280;4679;47.966;7.958;2023-04-28T07:05:28;96910.59;;;13.44;85.30
9281;BME280;4679;47.966;7.958;2023-04-28T07:07:30;96913.78;;;13.41;85.67
9281;BME280;4679;47.966;7.958;2023-04-28T07:09:31;96913.78;;;13.41;85.46
9281;BME280;4679;47.966;7.958;2023-04-28T07:11:33;96906.59;;;13.36;85.43
9281;BME280;4679;47.966;7.958;2023-04-28T07:13:35;96913.53;;;13.43;85.63
9281;BME280;4679;47.966;7.958;2023-04-28T07:15:36;96907.13;;;13.44;85.54
9281;BME280;4679;47.966;7.958;2023-04-28T07:17:38;96919.38;;;13.45;85.70
9281;BME280;4679;47.966;7.958;2023-04-28T07:19:40;96892.72;;;13.45;85.62
9281;BME280;4679;47.966;7.958;2023-04-28T07:21:43;96896.19;;;13.45;85.46
9281;BME280;4679;47.966;7.958;2023-04-28T07:23:45;96893.50;;;13.50;85.57
9281;BME280;4679;47.966;7.958;2023-04-28T07:25:48;96893.25;;;13.52;85.57
9281;BME280;4679;47.966;7.958;2023-04-28T07:27:50;96907.38;;;13.52;85.48
9281;BME280;4679;47.966;7.958;2023-04-28T07:29:51;96906.03;;;13.60;85.54
9281;BME280;4679;47.966;7.958;2023-04-28T07:31:53;96910.84;;;13.63;85.33
9281;BME280;4679;47.966;7.958;2023-04-28T07:33:55;96902.03;;;13.72;85.24
9281;BME280;4679;47.966;7.958;2023-04-28T07:35:57;96905.75;;;13.77;85.24
9281;BME280;4679;47.966;7.958;2023-04-28T07:38:01;96906.56;;;13.77;85.37
9281;BME280;4679;47.966;7.958;2023-04-28T07:40:03;96903.63;;;13.79;85.33
9281;BME280;4679;47.966;7.958;2023-04-28T07:42:05;96912.16;;;13.86;85.35
9281;BME280;4679;47.966;7.958;2023-04-28T07:44:07;96903.63;;;13.89;85.38
9281;BME280;4679;47.966;7.958;2023-04-28T07:46:11;96906.00;;;13.90;85.29
9281;BME280;4679;47.966;7.958;2023-04-28T07:48:13;96898.53;;;13.92;85.31
9281;BME280;4679;47.966;7.958;2023-04-28T07:50:15;96902.53;;;13.95;85.32
9281;BME280;4679;47.966;7.958;2023-04-28T07:52:17;96902.78;;;13.98;85.29
9281;BME280;4679;47.966;7.958;2023-04-28T07:54:20;96898.25;;;13.99;85.46
9281;BME280;4679;47.966;7.958;2023-04-28T07:56:22;96900.13;;;13.98;85.46
9281;BME280;4679;47.966;7.958;2023-04-28T07:58:23;96910.25;;;13.96;85.41
9281;BME280;4679;47.966;7.958;2023-04-28T08:00:25;96913.72;;;13.97;85.64
9281;BME280;4679;47.966;7.958;2023-04-28T08:02:27;96919.34;;;13.95;85.73
9281;BME280;4679;47.966;7.958;2023-04-28T08:04:28;96918.53;;;13.95;85.65
9281;BME280;4679;47.966;7.958;2023-04-28T08:06:31;96914.00;;;13.95;85.87
9281;BME280;4679;47.966;7.958;2023-04-28T08:08:33;96910.78;;;13.98;85.59
9281;BME280;4679;47.966;7.958;2023-04-28T08:10:36;96915.06;;;13.99;85.49
9281;BME280;4679;47.966;7.958;2023-04-28T08:12:40;96911.84;;;14.07;85.95
9281;BME280;4679;47.966;7.958;2023-04-28T08:14:41;96919.03;;;14.12;85.65
9281;BME280;4679;47.966;7.958;2023-04-28T08:16:43;96912.06;;;14.21;85.73
9281;BME280;4679;47.966;7.958;2023-04-28T08:18:45;96915.00;;;14.25;85.66
9281;BME280;4679;47.966;7.958;2023-04-28T08:20:47;96917.38;;;14.31;85.25
9281;BME280;4679;47.966;7.958;2023-04-28T08:22:49;96916.06;;;14.29;85.50
9281;BME280;4679;47.966;7.958;2023-04-28T08:24:51;96914.44;;;14.28;85.34
9281;BME280;4679;47.966;7.958;2023-04-28T08:26:54;96914.97;;;14.30;85.37
9281;BME280;4679;47.966;7.958;2023-04-28T08:28:55;96919.25;;;14.26;86.05
9281;BME280;4679;47.966;7.958;2023-04-28T08:30:57;96920.84;;;14.27;85.39
9281;BME280;4679;47.966;7.958;2023-04-28T08:32:59;96918.19;;;14.32;85.32
9281;BME280;4679;47.966;7.958;2023-04-28T08:35:00;96919.78;;;14.33;85.47
9281;BME280;4679;47.966;7.958;2023-04-28T08:37:02;96934.72;;;14.29;85.34
9281;BME280;4679;47.966;7.958;2023-04-28T08:39:06;96945.41;;;14.29;85.49
9281;BME280;4679;47.966;7.958;2023-04-28T08:41:08;96951.03;;;14.27;85.33
9281;BME280;4679;47.966;7.958;2023-04-28T08:43:11;96951.81;;;14.28;85.55
9281;BME280;4679;47.966;7.958;2023-04-28T08:45:14;96958.75;;;14.29;85.55
9281;BME280;4679;47.966;7.958;2023-04-28T08:47:18;96967.31;;;14.31;85.59
9281;BME280;4679;47.966;7.958;2023-04-28T08:49:27;96980.91;;;14.29;85.49
9281;BME280;4679;47.966;7.958;2023-04-28T08:51:34;96986.53;;;14.28;85.48
9281;BME280;4679;47.966;7.958;2023-04-28T08:53:38;96989.72;;;14.25;85.65
9281;BME280;4679;47.966;7.958;2023-04-28T08:55:40;96989.44;;;14.21;86.04
9281;BME280;4679;47.966;7.958;2023-04-28T08:57:43;96978.78;;;14.21;85.78
9281;BME280;4679;47.966;7.958;2023-04-28T08:59:46;96976.63;;;14.23;85.82
9281;BME280;4679;47.966;7.958;2023-04-28T09:01:48;96979.56;;;14.27;85.94
9281;BME280;4679;47.966;7.958;2023-04-28T09:03:52;96976.09;;;14.31;85.60
9281;BME280;4679;47.966;7.958;2023-04-28T09:05:54;96976.38;;;14.35;85.58
9281;BME280;4679;47.966;7.958;2023-04-28T09:07:56;96965.44;;;14.41;85.60
9281;BME280;4679;47.966;7.958;2023-04-28T09:10:20;96967.28;;;14.46;85.58
9281;BME280;4679;47.966;7.958;2023-04-28T09:12:35;96971.28;;;14.49;85.79
9281;BME280;4679;47.966;7.958;2023-04-28T09:14:37;96978.47;;;14.53;85.64
9281;BME280;4679;47.966;7.958;2023-04-28T09:16:40;96980.06;;;14.54;85.44
9281;BME280;4679;47.966;7.958;2023-04-28T09:18:54;96979.00;;;14.55;85.71
9281;BME280;4679;47.966;7.958;2023-04-28T09:21:04;96983.81;;;14.53;85.96
9281;BME280;4679;47.966;7.958;2023-04-28T09:23:13;96980.88;;;14.55;85.63
9281;BME280;4679;47.966;7.958;2023-04-28T09:25:16;96987.28;;;14.54;85.48
9281;BME280;4679;47.966;7.958;2023-04-28T09:27:25;96978.47;;;14.53;85.89
9281;BME280;4679;47.966;7.958;2023-04-28T09:29:27;96980.59;;;14.56;85.90
9281;BME280;4679;47.966;7.958;2023-04-28T09:31:29;96987.53;;;14.62;85.44
9281;BME280;4679;47.966;7.958;2023-04-28T09:33:32;96992.84;;;14.67;85.25
9281;BME280;4679;47.966;7.958;2023-04-28T09:35:39;96987.47;;;14.77;85.41
9281;BME280;4679;47.966;7.958;2023-04-28T09:37:41;97002.41;;;14.84;85.50
9281;BME280;4679;47.966;7.958;2023-04-28T09:39:43;97006.66;;;14.85;85.77
9281;BME280;4679;47.966;7.958;2023-04-28T09:41:45;96993.03;;;14.86;85.79
9281;BME280;4679;47.966;7.958;2023-04-28T09:43:48;96992.25;;;14.86;85.76
9281;BME280;4679;47.966;7.958;2023-04-28T09:45:50;96989.28;;;14.87;85.93
9281;BME280;4679;47.966;7.958;2023-04-28T09:47:52;96991.69;;;14.89;85.89
9281;BME280;4679;47.966;7.958;2023-04-28T09:50:14;96993.03;;;14.91;85.34
9281;BME280;4679;47.966;7.958;2023-04-28T09:52:16;96993.81;;;14.92;85.90
9281;BME280;4679;47.966;7.958;2023-04-28T09:54:20;96994.34;;;14.94;85.85
9281;BME280;4679;47.966;7.958;2023-04-28T09:56:23;96999.97;;;14.92;85.62
9281;BME280;4679;47.966;7.958;2023-04-28T09:58:26;96998.06;;;14.98;85.97
9281;BME280;4679;47.966;7.958;2023-04-28T10:00:28;96987.34;;;15.03;85.52
9281;BME280;4679;47.966;7.958;2023-04-28T10:02:32;96992.97;;;15.06;85.46
9281;BME280;4679;47.966;7.958;2023-04-28T10:04:34;96999.63;;;15.09;85.46
9281;BME280;4679;47.966;7.958;2023-04-28T10:06:38;97000.16;;;15.11;85.16
9281;BME280;4679;47.966;7.958;2023-04-28T10:08:40;96989.41;;;15.16;85.14
9281;BME280;4679;47.966;7.958;2023-04-28T10:10:42;96988.31;;;15.22;84.98
9281;BME280;4679;47.966;7.958;2023-04-28T10:12:44;96981.84;;;15.28;85.29
9281;BME280;4679;47.966;7.958;2023-04-28T10:14:47;96985.88;;;15.31;85.26
9281;BME280;4679;47.966;7.958;2023-04-28T10:16:50;96990.66;;;15.34;85.42
9281;BME280;4679;47.966;7.958;2023-04-28T10:18:55;96997.09;;;15.33;85.22
9281;BME280;4679;47.966;7.958;2023-04-28T10:20:59;97001.63;;;15.32;84.95
9281;BME280;4679;47.966;7.958;2023-04-28T10:23:18;96999.47;;;15.34;85.46
9281;BME280;4679;47.966;7.958;2023-04-28T10:25:26;97004.03;;;15.34;85.33
9281;BME280;4679;47.966;7.958;2023-04-28T10:27:28;96998.16;;;15.32;85.58
9281;BME280;4679;47.966;7.958;2023-04-28T10:29:31;96994.13;;;15.34;85.41
9281;BME280;4679;47.966;7.958;2023-04-28T10:31:33;96991.72;;;15.33;85.18
9281;BME280;4679;47.966;7.958;2023-04-28T10:33:36;96981.31;;;15.31;85.29
9281;BME280;4679;47.966;7.958;2023-04-28T10:35:42;96980.22;;;15.37;85.60
9281;BME280;4679;47.966;7.958;2023-04-28T10:38:03;96978.34;;;15.38;85.13
9281;BME280;4679;47.966;7.958;2023-04-28T10:40:31;96983.63;;;15.48;84.98
9281;BME280;4679;47.966;7.958;2023-04-28T10:42:53;96985.47;;;15.58;84.99
9281;BME280;4679;47.966;7.958;2023-04-28T10:44:55;96991.00;;;15.66;84.93
9281;BME280;4679;47.966;7.958;2023-04-28T10:47:00;96995.53;;;15.71;84.26
9281;BME280;4679;47.966;7.958;2023-04-28T10:49:02;96988.53;;;15.75;84.93
9281;BME280;4679;47.966;7.958;2023-04-28T10:51:21;96998.16;;;15.76;84.93
9281;BME280;4679;47.966;7.958;2023-04-28T10:56:05;96983.38;;;15.83;84.50
9281;BME280;4679;47.966;7.958;2023-04-28T10:58:29;96973.91;;;15.96;84.87
9281;BME280;4679;47.966;7.958;2023-04-28T11:00:30;96967.06;;;16.14;84.48
9281;BME280;4679;47.966;7.958;2023-04-28T11:02:41;96978.59;;;16.38;83.77
9281;BME280;4679;47.966;7.958;2023-04-28T11:07:19;96968.28;;;16.50;83.32
9281;BME280;4679;47.966;7.958;2023-04-28T11:09:45;96972.69;;;16.65;83.13
9281;BME280;4679;47.966;7.958;2023-04-28T11:12:05;96972.97;;;16.87;83.17
9281;BME280;4679;47.966;7.958;2023-04-28T11:14:32;96980.19;;;17.11;82.57
9281;BME280;4679;47.966;7.958;2023-04-28T11:16:47;96972.13;;;17.30;82.15
9281;BME280;4679;47.966;7.958;2023-04-28T11:19:00;96979.91;;;17.31;82.37
9281;BME280;4679;47.966;7.958;2023-04-28T11:21:06;96965.78;;;17.26;82.09
9281;BME280;4679;47.966;7.958;2023-04-28T11:23:09;96964.25;;;17.19;82.56
9281;BME280;4679;47.966;7.958;2023-04-28T11:25:11;96963.66;;;17.22;82.28
9281;BME280;4679;47.966;7.958;2023-04-28T11:27:22;96967.16;;;17.23;82.45
9281;BME280;4679;47.966;7.958;2023-04-28T11:29:30;96964.97;;;17.25;82.01
9281;BME280;4679;47.966;7.958;2023-04-28T11:31:32;96960.84;;;17.33;82.28
9281;BME280;4679;47.966;7.958;2023-04-28T11:33:34;96961.00;;;17.41;82.03
9281;BME280;4679;47.966;7.958;2023-04-28T11:35:40;96955.19;;;17.53;82.06
9281;BME280;4679;47.966;7.958;2023-04-28T11:37:42;96958.56;;;17.58;81.58
9281;BME280;4679;47.966;7.958;2023-04-28T11:39:43;96958.22;;;17.65;81.11
9281;BME280;4679;47.966;7.958;2023-04-28T11:41:45;96946.63;;;17.70;80.85
9281;BME280;4679;47.966;7.958;2023-04-28T11:43:48;96952.97;;;17.74;80.51
9281;BME280;4679;47.966;7.958;2023-04-28T11:45:50;96958.97;;;17.71;80.67
9281;BME280;4679;47.966;7.958;2023-04-28T11:47:52;96957.06;;;17.71;80.78
9281;BME280;4679;47.966;7.958;2023-04-28T11:49:53;96954.47;;;17.66;80.63
9281;BME280;4679;47.966;7.958;2023-04-28T11:51:56;96942.97;;;17.61;80.41
9281;BME280;4679;47.966;7.958;2023-04-28T11:53:59;96939.28;;;17.56;80.58
9281;BME280;4679;47.966;7.958;2023-04-28T11:56:05;96939.47;;;17.60;80.36
9281;BME280;4679;47.966;7.958;2023-04-28T11:58:18;96939.72;;;17.64;80.11
9281;BME280;4679;47.966;7.958;2023-04-28T12:00:24;96929.28;;;17.95;79.19
9281;BME280;4679;47.966;7.958;2023-04-28T12:02:27;96931.34;;;18.30;78.15
9281;BME280;4679;47.966;7.958;2023-04-28T12:04:30;96932.06;;;18.63;77.24
9281;BME280;4679;47.966;7.958;2023-04-28T12:06:32;96936.72;;;18.85;76.71
9281;BME280;4679;47.966;7.958;2023-04-28T12:08:34;96927.03;;;18.97;76.17
9281;BME280;4679;47.966;7.958;2023-04-28T12:10:36;96921.31;;;19.13;75.78
9281;BME280;4679;47.966;7.958;2023-04-28T12:12:38;96924.25;;;19.39;74.85
9281;BME280;4679;47.966;7.958;2023-04-28T12:14:53;96917.09;;;19.56;74.41
9281;BME280;4679;47.966;7.958;2023-04-28T12:16:56;96918.97;;;19.70;73.98
9281;BME280;4679;47.966;7.958;2023-04-28T12:18:58;96914.72;;;19.99;73.35
9281;BME280;4679;47.966;7.958;2023-04-28T12:21:01;96923.25;;;20.32;72.40
9281;BME280;4679;47.966;7.958;2023-04-28T12:23:03;96922.63;;;20.35;72.22
9281;BME280;4679;47.966;7.958;2023-04-28T12:25:06;96924.63;;;20.44;71.91
9281;BME280;4679;47.966;7.958;2023-04-28T12:27:15;96926.69;;;20.47;71.60
9281;BME280;4679;47.966;7.958;2023-04-28T12:29:37;96926.72;;;20.55;71.13
9281;BME280;4679;47.966;7.958;2023-04-28T12:31:49;96926.28;;;20.31;71.78
9281;BME280;4679;47.966;7.958;2023-04-28T12:33:53;96922.84;;;20.39;71.29
9281;BME280;4679;47.966;7.958;2023-04-28T12:35:56;96929.38;;;20.47;70.23
9281;BME280;4679;47.966;7.958;2023-04-28T12:37:58;96912.75;;;20.53;70.32
9281;BME280;4679;47.966;7.958;2023-04-28T12:40:00;96933.13;;;20.77;69.60
9281;BME280;4679;47.966;7.958;2023-04-28T12:42:03;96930.91;;;20.87;69.25
9281;BME280;4679;47.966;7.958;2023-04-28T12:44:05;96931.38;;;20.81;69.26
9281;BME280;4679;47.966;7.958;2023-04-28T12:46:07;96920.63;;;20.89;68.92
9281;BME280;4679;47.966;7.958;2023-04-28T12:48:09;96922.34;;;20.77;68.89
9281;BME280;4679;47.966;7.958;2023-04-28T12:50:12;96919.28;;;20.61;69.35
9281;BME280;4679;47.966;7.958;2023-04-28T12:52:14;96923.88;;;20.29;70.11
9281;BME280;4679;47.966;7.958;2023-04-28T12:54:15;96918.91;;;20.14;70.28
9281;BME280;4679;47.966;7.958;2023-04-28T12:56:17;96905.59;;;20.18;69.62
9281;BME280;4679;47.966;7.958;2023-04-28T12:58:19;96915.41;;;20.14;69.90
9281;BME280;4679;47.966;7.958;2023-04-28T13:00:20;96910.28;;;20.03;69.78
9281;BME280;4679;47.966;7.958;2023-04-28T13:02:23;96909.84;;;20.10;69.39
9281;BME280;4679;47.966;7.958;2023-04-28T13:04:24;96910.34;;;20.21;69.05
9281;BME280;4679;47.966;7.958;2023-04-28T13:06:43;96913.66;;;20.18;68.70
9281;BME280;4679;47.966;7.958;2023-04-28T13:08:45;96909.31;;;19.99;69.21
9281;BME280;4679;47.966;7.958;2023-04-28T13:10:46;96915.56;;;19.86;69.38
9281;BME280;4679;47.966;7.958;2023-04-28T13:12:48;96919.63;;;19.75;69.19
9281;BME280;4679;47.966;7.958;2023-04-28T13:14:50;96917.69;;;19.67;69.34
9281;BME280;4679;47.966;7.958;2023-04-28T13:16:51;96904.44;;;19.57;69.67
9281;BME280;4679;47.966;7.958;2023-04-28T13:18:54;96902.09;;;19.42;69.68
9281;BME280;4679;47.966;7.958;2023-04-28T13:20:57;96901.13;;;19.38;69.65
9281;BME280;4679;47.966;7.958;2023-04-28T13:23:00;96903.78;;;19.51;69.23
9281;BME280;4679;47.966;7.958;2023-04-28T13:25:03;96903.50;;;19.53;68.92
9281;BME280;4679;47.966;7.958;2023-04-28T13:27:05;96894.16;;;19.81;67.76
9281;BME280;4679;47.966;7.958;2023-04-28T13:29:09;96895.41;;;20.37;66.81
9281;BME280;4679;47.966;7.958;2023-04-28T13:31:11;96890.28;;;20.75;65.73
9281;BME280;4679;47.966;7.958;2023-04-28T13:33:13;96889.16;;;20.67;65.82
9281;BME280;4679;47.966;7.958;2023-04-28T13:35:14;96892.19;;;20.83;65.29
9281;BME280;4679;47.966;7.958;2023-04-28T13:37:17;96886.03;;;20.91;64.99
9281;BME280;4679;47.966;7.958;2023-04-28T13:39:20;96889.50;;;20.75;65.54
9281;BME280;4679;47.966;7.958;2023-04-28T13:41:22;96880.44;;;20.62;65.68
9281;BME280;4679;47.966;7.958;2023-04-28T13:43:23;96877.31;;;20.38;66.60
9281;BME280;4679;47.966;7.958;2023-04-28T13:45:25;96872.38;;;20.31;66.21
9281;BME280;4679;47.966;7.958;2023-04-28T13:47:28;96868.88;;;20.30;66.22
9281;BME280;4679;47.966;7.958;2023-04-28T13:49:31;96871.81;;;20.43;66.10
9281;BME280;4679;47.966;7.958;2023-04-28T13:51:34;96866.09;;;20.44;66.18
9281;BME280;4679;47.966;7.958;2023-04-28T13:53:35;96869.09;;;20.43;65.85
9281;BME280;4679;47.966;7.958;2023-04-28T13:55:39;96877.59;;;20.27;66.20
9281;BME280;4679;47.966;7.958;2023-04-28T13:57:41;96872.63;;;20.21;66.20
9281;BME280;4679;47.966;7.958;2023-04-28T13:59:43;96862.16;;;20.11;66.49
9281;BME280;4679;47.966;7.958;2023-04-28T14:01:45;96871.03;;;20.11;66.16
9281;BME280;4679;47.966;7.958;2023-04-28T14:03:46;96856.41;;;20.03;66.40
9281;BME280;4679;47.966;7.958;2023-04-28T14:05:48;96864.53;;;20.12;66.37
9281;BME280;4679;47.966;7.958;2023-04-28T14:07:50;96861.69;;;20.17;65.92
9281;BME280;4679;47.966;7.958;2023-04-28T14:09:52;96865.28;;;20.04;66.24
9281;BME280;4679;47.966;7.958;2023-04-28T14:11:55;96868.63;;;20.01;66.19
9281;BME280;4679;47.966;7.958;2023-04-28T14:13:57;96873.13;;;19.83;66.59
9281;BME280;4679;47.966;7.958;2023-04-28T14:15:59;96852.28;;;19.97;66.22
9281;BME280;4679;47.966;7.958;2023-04-28T14:18:01;96852.97;;;20.20;65.46
9281;BME280;4679;47.966;7.958;2023-04-28T14:20:04;96845.81;;;20.07;65.69
9281;BME280;4679;47.966;7.958;2023-04-28T14:22:06;96857.66;;;19.97;65.88
9281;BME280;4679;47.966;7.958;2023-04-28T14:24:08;96854.66;;;19.99;65.87
9281;BME280;4679;47.966;7.958;2023-04-28T14:26:10;96841.28;;;19.85;66.18
9281;BME280;4679;47.966;7.958;2023-04-28T14:28:13;96837.13;;;19.79;66.11
9281;BME280;4679;47.966;7.958;2023-04-28T14:30:15;96847.72;;;19.76;66.44
9281;BME280;4679;47.966;7.958;2023-04-28T14:32:17;96857.50;;;19.72;66.30
9281;BME280;4679;47.966;7.958;2023-04-28T14:34:20;96839.59;;;19.67;66.41
9281;BME280;4679;47.966;7.958;2023-04-28T14:36:22;96841.94;;;19.60;66.44
9281;BME280;4679;47.966;7.958;2023-04-28T14:38:23;96847.28;;;19.51;66.15
9281;BME280;4679;47.966;7.958;2023-04-28T14:40:25;96848.16;;;19.47;66.51
9281;BME280;4679;47.966;7.958;2023-04-28T14:42:28;96849.47;;;19.49;66.33
9281;BME280;4679;47.966;7.958;2023-04-28T14:44:33;96847.84;;;19.48;65.99
9281;BME280;4679;47.966;7.958;2023-04-28T14:46:35;96853.22;;;19.48;65.98
9281;BME280;4679;47.966;7.958;2023-04-28T14:48:36;96842.41;;;19.40;66.06
9281;BME280;4679;47.966;7.958;2023-04-28T14:50:38;96851.53;;;19.30;66.49
9281;BME280;4679;47.966;7.958;2023-04-28T14:52:40;96845.16;;;19.26;66.27
9281;BME280;4679;47.966;7.958;2023-04-28T14:54:42;96845.84;;;19.31;66.39
9281;BME280;4679;47.966;7.958;2023-04-28T14:56:44;96844.00;;;19.41;66.08
9281;BME280;4679;47.966;7.958;2023-04-28T14:58:45;96831.50;;;19.45;65.84
9281;BME280;4679;47.966;7.958;2023-04-28T15:00:49;96835.91;;;19.54;65.80
9281;BME280;4679;47.966;7.958;2023-04-28T15:02:52;96846.28;;;19.70;65.57
9281;BME280;4679;47.966;7.958;2023-04-28T15:04:54;96838.06;;;19.75;65.14
9281;BME280;4679;47.966;7.958;2023-04-28T15:06:57;96838.25;;;19.87;65.03
9281;BME280;4679;47.966;7.958;2023-04-28T15:08:59;96851.00;;;19.95;65.04
9281;BME280;4679;47.966;7.958;2023-04-28T15:11:01;96845.84;;;20.16;64.25
9281;BME280;4679;47.966;7.958;2023-04-28T15:13:02;96837.13;;;20.19;64.55
9281;BME280;4679;47.966;7.958;2023-04-28T15:15:05;96846.78;;;20.11;64.45
9281;BME280;4679;47.966;7.958;2023-04-28T15:17:08;96832.13;;;19.95;65.14
9281;BME280;4679;47.966;7.958;2023-04-28T15:19:10;96833.03;;;19.82;65.34
9281;BME280;4679;47.966;7.958;2023-04-28T15:21:11;96828.03;;;19.66;65.47
9281;BME280;4679;47.966;7.958;2023-04-28T15:23:13;96831.16;;;19.60;65.80
9281;BME280;4679;47.966;7.958;2023-04-28T15:25:15;96835.09;;;19.54;66.08
9281;BME280;4679;47.966;7.958;2023-04-28T15:27:17;96826.44;;;19.43;66.06
9281;BME280;4679;47.966;7.958;2023-04-28T15:29:19;96826.19;;;19.31;66.18
9281;BME280;4679;47.966;7.958;2023-04-28T15:31:21;96826.47;;;19.21;66.63
9281;BME280;4679;47.966;7.958;2023-04-28T15:33:26;96816.91;;;19.15;66.49
9281;BME280;4679;47.966;7.958;2023-04-28T15:35:28;96820.59;;;19.19;66.62
9281;BME280;4679;47.966;7.958;2023-04-28T15:37:41;96823.28;;;19.19;66.18
9281;BME280;4679;47.966;7.958;2023-04-28T15:39:43;96829.44;;;19.19;66.27
9281;BME280;4679;47.966;7.958;2023-04-28T15:41:45;96818.50;;;19.16;66.26
9281;BME280;4679;47.966;7.958;2023-04-28T15:43:47;96824.00;;;19.11;66.60
9281;BME280;4679;47.966;7.958;2023-04-28T15:45:50;96814.66;;;19.08;66.25
9281;BME280;4679;47.966;7.958;2023-04-28T15:47:51;96817.50;;;19.12;66.22
9281;BME280;4679;47.966;7.958;2023-04-28T15:49:56;96808.97;;;19.10;65.93
9281;BME280;4679;47.966;7.958;2023-04-28T15:51:58;96806.41;;;19.05;66.28
9281;BME280;4679;47.966;7.958;2023-04-28T15:54:00;96807.63;;;18.98;66.27
9281;BME280;4679;47.966;7.958;2023-04-28T15:56:02;96805.38;;;18.92;66.41
9281;BME280;4679;47.966;7.958;2023-04-28T15:58:04;96799.78;;;18.88;66.45
9281;BME280;4679;47.966;7.958;2023-04-28T16:00:08;96800.41;;;18.85;66.50
9281;BME280;4679;47.966;7.958;2023-04-28T16:02:10;96802.28;;;18.85;66.32
9281;BME280;4679;47.966;7.958;2023-04-28T16:04:12;96793.44;;;18.84;66.22
9281;BME280;4679;47.966;7.958;2023-04-28T16:06:15;96799.59;;;18.85;66.54
9281;BME280;4679;47.966;7.958;2023-04-28T16:08:17;96790.44;;;18.86;66.22
9281;BME280;4679;47.966;7.958;2023-04-28T16:10:20;96799.91;;;18.83;66.09
9281;BME280;4679;47.966;7.958;2023-04-28T16:12:21;96793.44;;;18.84;66.10
9281;BME280;4679;47.966;7.958;2023-04-28T16:14:23;96791.84;;;18.83;65.91
9281;BME280;4679;47.966;7.958;2023-04-28T16:16:26;96791.84;;;18.83;66.09
9281;BME280;4679;47.966;7.958;2023-04-28T16:18:28;96785.38;;;18.84;65.93
9281;BME280;4679;47.966;7.958;2023-04-28T16:20:30;96789.63;;;18.85;65.90
9281;BME280;4679;47.966;7.958;2023-04-28T16:22:34;96782.69;;;18.84;65.83
9281;BME280;4679;47.966;7.958;2023-04-28T16:24:36;96798.50;;;18.86;65.58
9281;BME280;4679;47.966;7.958;2023-04-28T16:26:41;96792.81;;;18.87;65.56
9281;BME280;4679;47.966;7.958;2023-04-28T16:28:43;96811.16;;;18.85;65.50
9281;BME280;4679;47.966;7.958;2023-04-28T16:30:46;96804.78;;;18.81;65.36
9281;BME280;4679;47.966;7.958;2023-04-28T16:32:48;96807.78;;;18.80;65.39
9281;BME280;4679;47.966;7.958;2023-04-28T16:34:52;96805.88;;;18.80;65.22
9281;BME280;4679;47.966;7.958;2023-04-28T16:36:53;96804.78;;;18.81;65.17
9281;BME280;4679;47.966;7.958;2023-04-28T16:38:56;96802.59;;;18.83;65.08
9281;BME280;4679;47.966;7.958;2023-04-28T16:40:58;96799.31;;;18.86;64.77
9281;BME280;4679;47.966;7.958;2023-04-28T16:43:00;96802.59;;;18.83;65.10
9281;BME280;4679;47.966;7.958;2023-04-28T16:45:01;96804.47;;;18.83;65.02
9281;BME280;4679;47.966;7.958;2023-04-28T16:47:03;96803.19;;;18.80;65.05
9281;BME280;4679;47.966;7.958;2023-04-28T16:49:06;96808.25;;;18.82;64.77
9281;BME280;4679;47.966;7.958;2023-04-28T16:51:08;96807.47;;;18.81;64.89
9281;BME280;4679;47.966;7.958;2023-04-28T16:53:10;96797.50;;;18.82;64.86
9281;BME280;4679;47.966;7.958;2023-04-28T16:55:13;96804.69;;;18.86;64.88
9281;BME280;4679;47.966;7.958;2023-04-28T16:57:15;96797.41;;;18.87;64.47
9281;BME280;4679;47.966;7.958;2023-04-28T16:59:17;96801.00;;;18.82;64.90
9281;BME280;4679;47.966;7.958;2023-04-28T17:01:20;96802.09;;;18.81;64.76
9281;BME280;4679;47.966;7.958;2023-04-28T17:03:22;96798.63;;;18.81;64.90
9281;BME280;4679;47.966;7.958;2023-04-28T17:05:23;96796.06;;;18.76;65.02
9281;BME280;4679;47.966;7.958;2023-04-28T17:07:25;96792.88;;;18.74;65.08
9281;BME280;4679;47.966;7.958;2023-04-28T17:09:27;96790.78;;;18.71;65.12
9281;BME280;4679;47.966;7.958;2023-04-28T17:11:31;96787.09;;;18.67;65.29
9281;BME280;4679;47.966;7.958;2023-04-28T17:13:36;96797.38;;;18.65;65.11
9281;BME280;4679;47.966;7.958;2023-04-28T17:15:39;96798.00;;;18.61;65.25
9281;BME280;4679;47.966;7.958;2023-04-28T17:17:41;96794.00;;;18.59;65.22
9281;BME280;4679;47.966;7.958;2023-04-28T17:19:42;96788.63;;;18.59;65.51
9281;BME280;4679;47.966;7.958;2023-04-28T17:21:45;96792.13;;;18.59;65.33
9281;BME280;4679;47.966;7.958;2023-04-28T17:23:49;96791.53;;;18.63;65.25
9281;BME280;4679;47.966;7.958;2023-04-28T17:25:51;96796.75;;;18.68;65.20
9281;BME280;4679;47.966;7.958;2023-04-28T17:27:54;96790.50;;;18.72;65.05
9281;BME280;4679;47.966;7.958;2023-04-28T17:29:55;96784.81;;;18.74;65.11
9281;BME280;4679;47.966;7.958;2023-04-28T17:31:57;96786.41;;;18.75;64.99
9281;BME280;4679;47.966;7.958;2023-04-28T17:33:59;96789.09;;;18.75;65.03